Time;durP1;ratioP1;P1;durP2;ratioP2;P2;SDS_P1;SDS_P2;PMS_P1;PMS_P2;Temp;Humidity;BMP_temperature;BMP_pressure;BME280_temperature;BME280_humidity;BME280_pressure;Samples;Min_cycle;Max_cycle;Signal;HPM_P1;HPM_P2
2022/11/18 00:00:28;;;;;;;18.52;12.82;;;;;;;;;;5094213;28;20032;-55
2022/11/18 00:02:54;;;;;;;20.27;13.23;;;;;;;;;;5093780;28;20367;-56
2022/11/18 00:05:20;;;;;;;18.17;12.73;;;;;;;;;;5094275;28;20044;-50
2022/11/18 00:07:46;;;;;;;19.00;11.38;;;;;;;;;;5093342;28;20427;-56
2022/11/18 00:10:11;;;;;;;19.00;12.82;;;7.50;99.90;;;;;;5095240;28;20032;-53
2022/11/18 00:15:21;;;;;;;21.27;14.13;;;;;;;;;;5078455;28;20036;-53
2022/11/18 00:17:47;;;;;;;18.40;12.25;;;7.30;99.90;;;;;;5078082;28;20044;-54
2022/11/18 00:20:13;;;;;;;17.50;12.18;;;;;;;;;;5090941;28;20059;-51
2022/11/18 00:22:39;;;;;;;18.48;12.48;;;;;;;;;;5073723;28;20071;-51
2022/11/18 00:25:05;;;;;;;20.08;13.93;;;;;;;;;;5093843;28;20075;-53
2022/11/18 00:27:31;;;;;;;19.55;13.68;;;;;;;;;;5092900;28;20775;-53
2022/11/18 00:29:58;;;;;;;19.45;13.75;;;;;;;;;;5086927;28;20036;-49
2022/11/18 00:32:23;;;;;;;21.30;14.13;;;7.30;99.90;;;;;;5078629;28;20036;-50
2022/11/18 00:34:49;;;;;;;22.42;14.73;;;;;;;;;;5085473;28;20043;-53
2022/11/18 00:37:15;;;;;;;20.85;13.93;;;;;;;;;;5092733;28;20170;-51
2022/11/18 00:39:41;;;;;;;21.85;16.02;;;7.50;99.90;;;;;;5093292;28;20123;-50
2022/11/18 00:44:52;;;;;;;22.77;15.90;;;;;;;;;;5093402;28;20570;-51
2022/11/18 00:47:18;;;;;;;26.02;16.45;;;;;;;;;;5096295;28;20036;-53
2022/11/18 00:49:44;;;;;;;21.88;15.43;;;;;;;;;;5092421;28;20032;-53
2022/11/18 00:52:10;;;;;;;22.98;16.35;;;;;;;;;;5093116;28;20547;-53
2022/11/18 00:54:36;;;;;;;22.58;15.73;;;;;;;;;;5093255;28;20031;-54
2022/11/18 00:57:04;;;;;;;24.67;16.77;;;;;;;;;;5092670;28;20034;-56
2022/11/18 00:59:30;;;;;;;26.48;17.30;;;;;;;;;;5092623;28;20032;-55
2022/11/18 01:02:11;;;;;;;26.02;17.95;;;;;;;;;;5090930;28;20058;-52
2022/11/18 01:04:36;;;;;;;24.85;17.05;;;7.30;99.90;;;;;;5104777;28;20118;-53
2022/11/18 01:07:02;;;;;;;27.55;18.42;;;;;;;;;;5091151;28;20119;-53
2022/11/18 01:09:28;;;;;;;26.40;17.50;;;;;;;;;;5090553;28;20286;-53
2022/11/18 01:14:39;;;;;;;29.77;19.00;;;;;;;;;;5090856;28;20405;-54
2022/11/18 01:17:05;;;;;;;27.10;17.80;;;;;;;;;;5086374;28;20047;-50
2022/11/18 01:19:31;;;;;;;30.60;19.55;;;;;;;;;;5074124;28;20040;-52
2022/11/18 01:22:01;;;;;;;31.48;19.45;;;;;;;;;;5091398;28;20085;-51
2022/11/18 01:24:28;;;;;;;28.35;18.83;;;;;;;;;;5092504;28;20118;-50
2022/11/18 01:26:54;;;;;;;28.63;18.92;;;;;;;;;;5083405;28;20047;-54
2022/11/18 01:29:20;;;;;;;31.85;21.13;;;;;;;;;;5095918;28;20093;-52
2022/11/18 01:31:46;;;;;;;32.22;20.48;;;;;;;;;;5102081;28;20036;-50
2022/11/18 01:34:12;;;;;;;31.63;19.70;;;;;;;;;;5086042;28;20033;-51
2022/11/18 01:36:38;;;;;;;34.88;21.88;;;;;;;;;;5090659;28;20040;-50
2022/11/18 01:39:04;;;;;;;32.13;19.70;;;;;;;;;;5090452;28;20051;-51
2022/11/18 01:41:30;;;;;;;32.60;19.95;;;7.50;99.90;;;;;;5092203;28;20040;-50
2022/11/18 01:43:58;;;;;;;32.95;19.83;;;;;;;;;;5073966;28;20505;-52
2022/11/18 01:46:27;;;;;;;30.52;20.20;;;7.30;99.90;;;;;;5091546;28;20496;-51
2022/11/18 01:48:56;;;;;;;32.03;20.40;;;;;;;;;;5080947;28;20051;-53
2022/11/18 01:51:31;;;;;;;35.20;21.30;;;;;;;;;;5092986;28;20027;-54
2022/11/18 01:54:01;;;;;;;32.25;19.98;;;8.20;99.90;;;;;;5083045;28;20032;-51
2022/11/18 01:56:38;;;;;;;36.22;21.52;;;;;;;;;;5094043;28;20040;-50
2022/11/18 01:59:10;;;;;;;30.77;19.45;;;8.50;99.90;;;;;;5084679;28;20116;-54
2022/11/18 02:01:36;;;;;;;32.55;19.42;;;;;;;;;;5091764;28;20122;-55
2022/11/18 02:04:02;;;;;;;34.70;19.13;;;;;;;;;;5091935;28;20036;-53
2022/11/18 02:06:28;;;;;;;35.33;20.35;;;;;;;;;;5091787;28;20040;-56
2022/11/18 02:08:55;;;;;;;33.70;19.42;;;;;;;;;;5090593;28;20028;-50
2022/11/18 02:14:08;;;;;;;34.00;18.95;;;7.50;99.90;;;;;;5099975;28;20032;-52
2022/11/18 02:16:59;;;;;;;28.77;18.30;;;7.70;99.90;;;;;;5090683;28;20044;-51
2022/11/18 02:19:43;;;;;;;29.77;19.00;;;;;;;;;;5087700;28;20040;-51
2022/11/18 02:22:46;;;;;;;31.02;18.48;;;7.80;99.90;;;;;;5104152;28;20048;-52
2022/11/18 02:25:18;;;;;;;38.10;20.20;;;;;;;;;;5091347;28;20530;-50
2022/11/18 02:28:02;;;;;;;35.47;21.20;;;;;;;;;;5090510;28;20043;-50
2022/11/18 02:30:31;;;;;;;34.50;20.58;;;;;;;;;;5101898;28;20405;-56
2022/11/18 02:33:08;;;;;;;31.92;19.90;;;8.20;99.90;;;;;;5091627;28;20036;-52
2022/11/18 02:35:48;;;;;;;32.70;19.38;;;7.50;99.90;;;;;;5090972;28;20070;-51
2022/11/18 02:38:19;;;;;;;35.88;20.95;;;;;;;;;;5085616;28;20028;-51
2022/11/18 02:40:58;;;;;;;35.22;19.58;;;8.30;99.90;;;;;;5092636;28;20040;-50
2022/11/18 02:43:28;;;;;;;33.65;20.48;;;;;;;;;;5073232;28;20031;-53
2022/11/18 02:45:58;;;;;;;33.10;20.30;;;;;;;;;;5085057;28;20516;-53
2022/11/18 02:48:26;;;;;;;33.55;19.25;;;;;;;;;;5086398;28;20569;-53
2022/11/18 02:50:52;;;;;;;33.58;20.67;;;;;;;;;;5091080;28;20119;-53
2022/11/18 02:53:19;;;;;;;33.60;19.83;;;;;;;;;;5090469;28;20028;-54
2022/11/18 02:55:46;;;;;;;36.42;20.85;;;8.20;99.90;;;;;;5080592;28;20051;-56
2022/11/18 02:58:14;;;;;;;35.88;20.23;;;;;;;;;;5090285;28;20090;-52
2022/11/18 03:00:40;;;;;;;36.20;21.35;;;8.10;99.90;;;;;;5090783;28;20390;-51
2022/11/18 03:03:22;;;;;;;35.45;21.65;;;;;;;;;;5090624;28;20047;-52
2022/11/18 03:06:05;;;;;;;32.13;19.02;;;8.30;99.90;;;;;;5090515;28;20185;-50
2022/11/18 03:08:43;;;;;;;34.50;20.33;;;;;;;;;;5089989;28;20155;-50
2022/11/18 03:11:13;;;;;;;31.00;19.38;;;;;;;;;;5090800;28;20134;-55
2022/11/18 03:13:48;;;;;;;40.58;21.88;;;;;;;;;;5090473;28;20035;-50
2022/11/18 03:16:14;;;;;;;;;;;;;;;;;;5090896;28;20046;-54
2022/11/18 03:19:00;;;;;;;36.45;21.25;;;8.40;99.90;;;;;;5090170;28;19919;-53
2022/11/18 03:21:38;;;;;;;34.50;20.05;;;;;;;;;;5094280;28;20032;-52
2022/11/18 03:24:20;;;;;;;38.80;21.20;;;;;;;;;;5083848;28;20036;-56
2022/11/18 03:27:04;;;;;;;35.20;20.67;;;;;;;;;;5089810;28;20046;-53
2022/11/18 03:29:37;;;;;;;31.80;19.25;;;8.50;99.90;;;;;;5072175;28;20048;-54
2022/11/18 03:32:05;;;;;;;34.25;20.17;;;;;;;;;;5090464;28;20111;-52
2022/11/18 03:34:35;;;;;;;35.38;20.90;;;;;;;;;;5072388;28;20516;-55
2022/11/18 03:37:02;;;;;;;37.45;21.48;;;;;;;;;;5089370;28;20039;-53
2022/11/18 03:39:33;;;;;;;33.65;20.23;;;8.70;99.90;;;;;;5091540;28;20032;-56
2022/11/18 03:42:04;;;;;;;37.13;20.83;;;;;;;;;;5089257;28;20044;-55
2022/11/18 03:44:35;;;;;;;33.50;20.77;;;8.20;99.90;;;;;;5092256;28;20042;-52
2022/11/18 03:47:04;;;;;;;31.10;19.77;;;;;;;;;;5097010;28;20118;-52
2022/11/18 03:49:50;;;;;;;33.75;21.25;;;;;;;;;;5100275;28;20039;-54
2022/11/18 03:52:24;;;;;;;32.80;20.98;;;8.50;99.90;;;;;;5090033;28;20036;-54
2022/11/18 03:54:52;;;;;;;37.38;20.33;;;;;;;;;;5089925;28;20039;-50
2022/11/18 03:57:27;;;;;;;31.75;20.20;;;;;;;;;;5089303;28;20047;-50
2022/11/18 03:59:56;;;;;;;34.97;21.08;;;;;;;;;;5089848;28;20064;-56
2022/11/18 04:02:24;;;;;;;32.95;18.30;;;8.60;99.90;;;;;;5090382;28;20085;-50
2022/11/18 04:04:51;;;;;;;34.90;19.75;;;;;;;;;;5088949;28;20047;-52
2022/11/18 04:07:36;;;;;;;36.42;20.52;;;8.60;99.90;;;;;;5071536;28;20397;-50
2022/11/18 04:10:06;;;;;;;31.52;19.13;;;;;;;;;;5089025;28;20111;-55
2022/11/18 04:12:38;;;;;;;31.70;18.95;;;8.50;99.90;;;;;;5071936;28;20464;-53
2022/11/18 04:15:04;;;;;;;35.55;20.60;;;;;;;;;;5090053;28;20028;-53
2022/11/18 04:17:30;;;;;;;37.47;21.20;;;;;;;;;;5090167;28;20040;-52
2022/11/18 04:19:56;;;;;;;33.85;19.73;;;;;;;;;;5107817;28;20404;-55
2022/11/18 04:22:22;;;;;;;34.60;21.25;;;;;;;;;;5090264;28;20032;-51
2022/11/18 04:24:48;;;;;;;31.85;18.98;;;;;;;;;;5089551;28;20571;-51
2022/11/18 04:27:14;;;;;;;31.85;19.88;;;;;;;;;;5089093;28;20169;-54
2022/11/18 04:29:40;;;;;;;34.50;19.60;;;8.30;99.90;;;;;;5072227;28;20080;-50
2022/11/18 04:32:06;;;;;;;34.97;19.40;;;8.20;99.90;;;;;;5089754;28;20115;-56
2022/11/18 04:34:32;;;;;;;33.25;20.50;;;;;;;;;;5089873;28;20032;-56
2022/11/18 04:36:58;;;;;;;32.47;20.48;;;7.80;99.90;;;;;;5089066;28;20504;-56
2022/11/18 04:39:24;;;;;;;33.80;19.48;;;;;;;;;;5088883;28;20064;-55
2022/11/18 04:41:56;;;;;;;30.33;18.63;;;;;;;;;;5093678;28;20071;-55
2022/11/18 04:44:26;;;;;;;32.92;18.55;;;;;;;;;;5092957;28;20071;-56
2022/11/18 04:46:53;;;;;;;34.70;20.52;;;8.30;99.90;;;;;;5092819;28;20032;-55
2022/11/18 04:49:20;;;;;;;31.30;17.55;;;8.10;99.90;;;;;;5092165;28;20032;-53
2022/11/18 04:51:46;;;;;;;32.63;19.38;;;8.20;99.90;;;;;;5093099;28;20505;-51
2022/11/18 04:54:12;;;;;;;35.92;19.58;;;8.60;99.90;;;;;;5092716;28;20024;-54
2022/11/18 04:56:38;;;;;;;32.50;18.95;;;;;;;;;;5092661;28;20047;-54
2022/11/18 04:59:05;;;;;;;38.47;20.85;;;;;;;;;;5092658;28;20122;-53
2022/11/18 05:01:31;;;;;;;33.90;19.88;;;;;;;;;;5093008;28;20111;-51
2022/11/18 05:03:59;;;;;;;31.23;19.23;;;8.60;99.90;;;;;;5093149;28;20063;-53
2022/11/18 05:06:24;;;;;;;34.55;19.80;;;8.20;99.90;;;;;;5099949;28;20047;-51
2022/11/18 05:08:50;;;;;;;32.13;19.13;;;8.10;99.90;;;;;;5091914;28;20355;-53
2022/11/18 05:14:01;;;;;;;29.50;18.35;;;8.10;99.90;;;;;;5087056;28;20036;-53
2022/11/18 05:16:27;;;;;;;30.90;19.45;;;;;;;;;;5092259;28;20058;-55
2022/11/18 05:18:53;;;;;;;33.80;19.98;;;;;;;;;;5073123;28;20060;-55
2022/11/18 05:21:19;;;;;;;29.70;17.88;;;;;;;;;;5092162;28;20517;-56
2022/11/18 05:23:45;;;;;;;33.72;19.85;;;;;;;;;;5094191;28;20047;-50
2022/11/18 05:26:11;;;;;;;32.10;19.02;;;;;;;;;;5099297;28;20111;-50
2022/11/18 05:28:37;;;;;;;30.73;19.67;;;;;;;;;;5093671;28;20061;-50
2022/11/18 05:31:13;;;;;;;33.88;19.48;;;;;;;;;;5092025;28;20034;-51
2022/11/18 05:33:39;;;;;;;32.72;19.92;;;;;;;;;;5090868;28;20035;-53
2022/11/18 05:36:06;;;;;;;29.33;18.73;;;;;;;;;;5095790;28;20032;-52
2022/11/18 05:38:33;;;;;;;32.40;19.25;;;;;;;;;;5092342;28;20032;-52
2022/11/18 05:40:59;;;;;;;29.48;19.25;;;8.00;99.90;;;;;;5096901;28;20032;-51
2022/11/18 05:43:25;;;;;;;31.50;18.77;;;;;;;;;;5093511;28;20036;-51
2022/11/18 05:45:51;;;;;;;30.88;18.73;;;;;;;;;;5092036;28;20515;-51
2022/11/18 05:48:18;;;;;;;32.00;18.70;;;;;;;;;;5091147;28;20036;-52
2022/11/18 05:50:46;;;;;;;30.80;19.50;;;7.40;99.90;;;;;;5091397;28;20080;-52
2022/11/18 05:53:12;;;;;;;30.38;18.42;;;8.10;99.90;;;;;;5090707;28;20420;-51
2022/11/18 05:56:01;;;;;;;29.52;18.63;;;;;;;;;;5080756;28;20036;-50
2022/11/18 05:58:27;;;;;;;31.85;18.98;;;8.00;99.90;;;;;;5087266;28;20032;-49
2022/11/18 06:00:54;;;;;;;30.48;19.35;;;;;;;;;;5089689;28;20102;-49
2022/11/18 06:03:22;;;;;;;26.83;16.95;;;;;;;;;;5090023;28;20053;-50
2022/11/18 06:05:49;;;;;;;30.60;18.30;;;;;;;;;;5057058;28;20437;-55
2022/11/18 06:08:17;;;;;;;28.13;17.27;;;7.50;99.90;;;;;;5073690;28;20040;-51
2022/11/18 06:10:45;;;;;;;29.17;16.75;;;;;;;;;;5084529;28;20040;-54
2022/11/18 06:13:19;;;;;;;29.10;17.73;;;8.30;99.90;;;;;;5091433;28;20089;-55
2022/11/18 06:15:51;;;;;;;32.95;17.40;;;8.00;99.90;;;;;;5098944;28;20434;-55
2022/11/18 06:18:28;;;;;;;28.92;16.38;;;;;;;;;;5094065;28;20040;-53
2022/11/18 06:20:56;;;;;;;27.15;17.50;;;;;;;;;;5084520;28;20101;-53
2022/11/18 06:23:22;;;;;;;28.83;18.10;;;8.20;99.90;;;;;;5094384;28;20047;-51
2022/11/18 06:25:48;;;;;;;29.38;18.10;;;8.00;99.90;;;;;;5074927;28;20052;-54
2022/11/18 06:28:15;;;;;;;29.08;17.55;;;;;;;;;;5093545;28;20044;-53
2022/11/18 06:30:40;;;;;;;29.23;18.08;;;7.90;99.90;;;;;;5093351;28;20188;-49
2022/11/18 06:33:07;;;;;;;26.98;17.52;;;8.00;99.90;;;;;;5095895;28;20114;-52
2022/11/18 06:35:34;;;;;;;26.63;16.70;;;;;;;;;;5083883;28;20041;-52
2022/11/18 06:38:00;;;;;;;32.00;17.40;;;;;;;;;;5084388;28;20046;-49
2022/11/18 06:40:29;;;;;;;28.63;17.45;;;;;;;;;;5084097;28;20036;-50
2022/11/18 06:46:54;;;;;;;28.63;16.73;;;;;;;;;;5084260;28;20047;-53
2022/11/18 06:48:28;;;;;;;28.13;16.85;;;;;;;;;;5089874;28;20040;-52
2022/11/18 06:50:54;;;;;;;27.98;17.23;;;;;;;;;;5090812;28;20054;-49
2022/11/18 06:53:20;;;;;;;27.48;16.10;;;8.00;99.90;;;;;;5097137;28;20525;-51
2022/11/18 06:55:46;;;;;;;30.52;17.40;;;;;;;;;;5072475;28;20085;-51
2022/11/18 06:58:12;;;;;;;28.95;17.55;;;;;;;;;;5090813;28;20044;-56
2022/11/18 07:00:40;;;;;;;25.80;16.40;;;7.60;99.90;;;;;;5094315;28;20032;-52
2022/11/18 07:03:06;;;;;;;26.90;16.48;;;;;;;;;;5096652;28;20031;-54
2022/11/18 07:05:32;;;;;;;31.42;17.58;;;;;;;;;;5090210;28;20547;-54
2022/11/18 07:07:58;;;;;;;28.60;16.60;;;;;;;;;;5071539;28;20085;-54
2022/11/18 07:12:53;;;;;;;30.30;17.00;;;;;;;;;;5044761;28;20041;-58
2022/11/18 07:15:19;;;;;;;32.45;18.52;;;;;;;;;;5052949;28;20064;-58
2022/11/18 07:17:45;;;;;;;27.05;17.52;;;;;;;;;;5048754;28;20355;-58
2022/11/18 07:20:11;;;;;;;27.77;17.38;;;;;;;;;;5046681;28;20445;-58
2022/11/18 07:22:37;;;;;;;26.83;16.60;;;;;;;;;;5048140;28;20041;-58
2022/11/18 07:25:02;;;;;;;30.00;16.48;;;7.90;99.90;;;;;;5047970;28;20379;-59
2022/11/18 07:27:28;;;;;;;27.52;17.48;;;7.90;99.90;;;;;;5050684;28;20029;-58
2022/11/18 07:29:54;;;;;;;26.70;16.25;;;;;;;;;;5058711;28;20486;-58
2022/11/18 07:32:23;;;;;;;26.55;15.27;;;;;;;;;;5051453;28;20029;-58
2022/11/18 07:34:49;;;;;;;27.00;14.75;;;8.00;99.90;;;;;;5049284;28;20545;-58
2022/11/18 07:37:14;;;;;;;26.45;15.52;;;8.00;99.90;;;;;;5047875;28;20284;-58
2022/11/18 07:39:40;;;;;;;27.70;16.08;;;;;;;;;;5049742;28;20083;-56
2022/11/18 07:42:10;;;;;;;28.00;16.10;;;7.40;99.90;;;;;;5049944;28;20410;-58
2022/11/18 07:44:42;;;;;;;27.05;16.80;;;;;;;;;;5050007;28;20029;-58
2022/11/18 07:47:08;;;;;;;29.70;16.45;;;;;;;;;;5054627;28;20032;-57
2022/11/18 07:49:34;;;;;;;29.85;17.20;;;7.80;99.90;;;;;;5049708;28;20045;-58
2022/11/18 07:52:00;;;;;;;25.63;15.50;;;;;;;;;;5049952;28;20103;-58
2022/11/18 07:54:26;;;;;;;26.70;16.73;;;;;;;;;;5049646;28;20502;-58
2022/11/18 07:56:52;;;;;;;28.63;15.57;;;;;;;;;;5049543;28;20529;-58
2022/11/18 07:59:21;;;;;;;27.13;16.25;;;;;;;;;;5049688;28;20041;-58
2022/11/18 08:01:48;;;;;;;27.48;15.50;;;;;;;;;;5048538;28;20044;-59
2022/11/18 08:04:17;;;;;;;27.98;15.43;;;8.00;99.90;;;;;;5048888;28;20040;-58
2022/11/18 08:06:43;;;;;;;23.85;15.00;;;;;;;;;;5049022;28;20047;-55
2022/11/18 08:09:09;;;;;;;28.20;15.15;;;;;;;;;;5051366;28;20490;-56
2022/11/18 08:11:35;;;;;;;26.02;14.90;;;8.40;99.90;;;;;;5050591;28;20029;-56
2022/11/18 08:14:01;;;;;;;28.55;17.08;;;;;;;;;;5048500;28;21188;-56
2022/11/18 08:16:31;;;;;;;27.42;15.30;;;;;;;;;;5050540;28;20047;-56
2022/11/18 08:18:58;;;;;;;26.67;16.08;;;;;;;;;;5047679;28;20041;-56
2022/11/18 08:21:24;;;;;;;30.80;16.65;;;7.90;99.90;;;;;;5052811;28;20509;-54
2022/11/18 08:23:54;;;;;;;28.85;15.75;;;7.80;99.90;;;;;;5052975;28;20037;-56
2022/11/18 08:26:21;;;;;;;35.28;18.92;;;8.00;99.90;;;;;;5057046;28;20047;-56
2022/11/18 08:28:47;;;;;;;29.85;16.42;;;;;;;;;;5060400;28;20060;-56
2022/11/18 08:31:15;;;;;;;30.52;17.02;;;;;;;;;;5050932;28;20505;-56
2022/11/18 08:33:41;;;;;;;39.45;17.55;;;7.90;99.90;;;;;;5052587;28;20518;-56
2022/11/18 08:36:17;;;;;;;29.60;16.38;;;;;;;;;;5059129;28;20037;-57
2022/11/18 08:38:43;;;;;;;27.77;15.80;;;8.10;99.90;;;;;;5056429;28;20510;-56
2022/11/18 08:41:33;;;;;;;30.10;15.15;;;;;;;;;;5051744;28;20527;-59
2022/11/18 08:44:02;;;;;;;28.50;15.43;;;7.20;99.90;;;;;;5049951;28;20051;-56
2022/11/18 08:46:28;;;;;;;29.13;15.82;;;7.80;99.90;;;;;;5060983;28;20032;-57
2022/11/18 08:48:54;;;;;;;27.60;14.60;;;;;;;;;;5034698;28;20045;-57
2022/11/18 08:51:20;;;;;;;27.02;16.23;;;7.80;99.90;;;;;;5049569;28;20056;-58
2022/11/18 08:53:46;;;;;;;26.33;14.43;;;;;;;;;;5051314;28;20062;-56
2022/11/18 08:56:14;;;;;;;26.23;14.15;;;;;;;;;;5052299;28;20047;-55
2022/11/18 08:58:40;;;;;;;32.60;16.65;;;;;;;;;;5053790;28;20041;-57
2022/11/18 09:01:09;;;;;;;32.22;16.05;;;8.10;99.90;;;;;;5053793;28;20447;-57
2022/11/18 09:03:35;;;;;;;32.80;17.58;;;8.10;99.90;;;;;;5055196;28;20504;-57
2022/11/18 09:06:09;;;;;;;25.85;15.30;;;;;;;;;;5051064;28;20080;-55
2022/11/18 09:08:35;;;;;;;25.60;14.88;;;;;;;;;;5051944;28;20422;-56
2022/11/18 09:11:05;;;;;;;26.20;14.77;;;;;;;;;;5052027;28;20093;-56
2022/11/18 09:13:31;;;;;;;24.50;13.90;;;;;;;;;;5060175;28;20071;-56
2022/11/18 09:15:57;;;;;;;29.58;15.98;;;;;;;;;;5041848;28;20500;-57
2022/11/18 09:18:23;;;;;;;25.67;14.63;;;;;;;;;;5032194;28;20427;-57
2022/11/18 09:21:00;;;;;;;24.98;14.40;;;8.00;99.90;;;;;;5034317;28;20044;-56
2022/11/18 09:23:26;;;;;;;37.05;16.52;;;;;;;;;;5050190;28;20403;-57
2022/11/18 09:26:02;;;;;;;23.90;13.57;;;;;;;;;;5051621;28;20487;-56
2022/11/18 09:28:34;;;;;;;25.83;14.10;;;7.50;99.90;;;;;;5049875;28;20596;-56
2022/11/18 09:31:16;;;;;;;22.67;13.55;;;8.50;99.90;;;;;;5043984;28;20376;-56
2022/11/18 09:33:42;;;;;;;23.08;12.63;;;8.00;99.90;;;;;;5051627;28;20032;-54
2022/11/18 09:36:19;;;;;;;23.42;13.45;;;;;;;;;;5051928;28;20082;-54
2022/11/18 09:38:45;;;;;;;22.23;12.15;;;;;;;;;;5051974;28;20036;-54
2022/11/18 09:41:30;;;;;;;21.55;12.57;;;;;;;;;;5043966;28;20116;-57
2022/11/18 09:44:16;;;;;;;23.33;12.05;;;8.00;99.90;;;;;;5046437;28;20430;-56
2022/11/18 09:47:01;;;;;;;20.67;12.23;;;;;;;;;;5060158;28;20456;-56
2022/11/18 09:49:31;;;;;;;23.75;11.80;;;8.00;99.90;;;;;;5050596;28;20087;-54
2022/11/18 09:52:12;;;;;;;19.23;11.05;;;;;;;;;;5056592;28;20043;-56
2022/11/18 09:54:39;;;;;;;20.88;10.07;;;;;;;;;;5048607;28;20155;-57
2022/11/18 09:57:15;;;;;;;21.13;11.02;;;;;;;;;;5050986;28;20033;-57
2022/11/18 09:59:41;;;;;;;17.58;10.48;;;8.10;99.90;;;;;;5053217;28;20045;-55
2022/11/18 10:02:16;;;;;;;18.30;10.20;;;;;;;;;;5051063;28;20041;-53
2022/11/18 10:04:46;;;;;;;16.85;10.20;;;;;;;;;;5048210;28;20064;-56
2022/11/18 10:07:18;;;;;;;19.35;9.88;;;;;;;;;;5051211;28;20397;-54
2022/11/18 10:09:45;;;;;;;18.13;10.95;;;8.10;99.90;;;;;;5051600;28;20047;-56
2022/11/18 10:12:38;;;;;;;20.00;10.10;;;7.90;99.90;;;;;;5051453;28;20427;-56
2022/11/18 10:15:13;;;;;;;20.80;10.70;;;;;;;;;;5045228;28;20041;-56
2022/11/18 10:17:47;;;;;;;16.85;10.25;;;8.10;99.90;;;;;;5035747;28;20041;-57
2022/11/18 10:20:22;;;;;;;21.60;11.43;;;;;;;;;;5048515;28;20077;-55
2022/11/18 10:23:08;;;;;;;18.55;10.60;;;;;;;;;;5048381;28;20384;-57
2022/11/18 10:25:34;;;;;;;36.88;13.00;;;;;;;;;;5050247;28;20045;-57
2022/11/18 10:28:13;;;;;;;24.77;11.10;;;;;;;;;;5052729;28;20398;-57
2022/11/18 10:30:39;;;;;;;20.05;10.23;;;;;;;;;;5048737;28;20392;-58
2022/11/18 10:33:25;;;;;;;18.25;9.93;;;;;;;;;;5059415;28;20039;-57
2022/11/18 10:36:20;;;;;;;39.70;12.90;;;8.20;99.90;;;;;;5051361;28;20055;-56
2022/11/18 10:38:46;;;;;;;20.27;10.82;;;;;;;;;;5053896;28;20426;-57
2022/11/18 10:41:13;;;;;;;20.25;10.18;;;;;;;;;;5050615;28;20040;-57
2022/11/18 10:43:48;;;;;;;25.98;10.45;;;;;;;;;;5052459;28;20048;-57
2022/11/18 10:46:32;;;;;;;17.13;9.77;;;7.90;99.90;;;;;;5054016;28;20029;-57
2022/11/18 10:49:10;;;;;;;19.60;10.57;;;;;;;;;;5044637;28;20041;-57
2022/11/18 10:51:47;;;;;;;16.98;9.25;;;8.00;99.90;;;;;;5058882;28;20036;-57
2022/11/18 10:54:16;;;;;;;16.52;9.07;;;;;;;;;;5049481;28;20174;-57
2022/11/18 10:56:48;;;;;;;15.55;8.35;;;;;;;;;;5049596;28;20453;-57
2022/11/18 10:59:28;;;;;;;16.65;8.73;;;;;;;;;;5049279;28;20037;-57
2022/11/18 11:02:00;;;;;;;16.55;10.02;;;;;;;;;;5053891;28;20094;-57
2022/11/18 11:04:28;;;;;;;16.48;8.38;;;;;;;;;;5052789;28;20040;-57
2022/11/18 11:06:54;;;;;;;16.85;9.15;;;;;;;;;;5049812;28;20036;-57
2022/11/18 11:09:30;;;;;;;16.90;9.40;;;;;;;;;;5065279;28;20041;-57
2022/11/18 11:11:58;;;;;;;15.02;8.85;;;;;;;;;;5053261;28;20039;-57
2022/11/18 11:14:35;;;;;;;14.15;8.30;;;7.60;99.90;;;;;;5059508;28;20510;-57
2022/11/18 11:17:12;;;;;;;16.10;8.82;;;8.60;99.90;;;;;;5052891;28;20037;-57
2022/11/18 11:19:51;;;;;;;15.90;8.48;;;7.90;99.90;;;;;;5050675;28;20068;-57
2022/11/18 11:22:17;;;;;;;15.88;9.25;;;8.10;99.90;;;;;;5050505;28;20090;-57
2022/11/18 11:24:43;;;;;;;14.88;8.18;;;;;;;;;;5046947;28;20044;-57
2022/11/18 11:27:19;;;;;;;14.43;8.07;;;;;;;;;;5049627;28;20122;-56
2022/11/18 11:30:15;;;;;;;15.50;8.15;;;8.10;99.90;;;;;;5047376;28;20042;-56
2022/11/18 11:32:41;;;;;;;14.52;7.93;;;;;;;;;;5048962;28;20256;-56
2022/11/18 11:35:13;;;;;;;17.35;9.07;;;;;;;;;;5052013;28;20093;-57
2022/11/18 11:37:59;;;;;;;15.27;8.07;;;8.10;99.90;;;;;;5056558;28;20040;-57
2022/11/18 11:40:38;;;;;;;14.48;8.48;;;;;;;;;;5046537;28;20045;-57
2022/11/18 11:43:24;;;;;;;14.90;8.20;;;;;;;;;;5049173;28;20502;-56
2022/11/18 11:46:23;;;;;;;14.48;8.43;;;7.30;99.90;;;;;;5062814;28;20037;-57
2022/11/18 11:49:08;;;;;;;17.10;8.50;;;;;;;;;;5045668;28;20375;-58
2022/11/18 11:51:44;;;;;;;15.35;8.93;;;;;;;;;;5053151;28;20052;-57
2022/11/18 11:54:30;;;;;;;16.52;9.43;;;;;;;;;;5054661;28;20037;-57
2022/11/18 11:56:59;;;;;;;17.27;8.88;;;;;;;;;;5052955;28;20537;-57
2022/11/18 11:59:31;;;;;;;15.63;8.15;;;;;;;;;;5053286;28;20041;-57
2022/11/18 12:02:33;;;;;;;13.40;7.88;;;8.50;99.90;;;;;;5054395;28;20581;-56
2022/11/18 12:05:08;;;;;;;15.95;8.00;;;;;;;;;;5049082;28;20033;-56
2022/11/18 12:07:41;;;;;;;16.23;8.00;;;;;;;;;;5057038;28;20048;-57
2022/11/18 12:10:16;;;;;;;14.45;8.45;;;;;;;;;;5057275;28;20044;-57
2022/11/18 12:12:42;;;;;;;13.77;7.32;;;;;;;;;;5054439;28;20088;-55
2022/11/18 12:15:39;;;;;;;13.73;7.03;;;8.10;99.90;;;;;;5051906;28;20396;-55
2022/11/18 12:18:05;;;;;;;13.80;7.72;;;;;;;;;;5053540;28;20044;-57
2022/11/18 12:20:37;;;;;;;13.52;8.05;;;8.30;99.90;;;;;;5053560;28;20504;-56
2022/11/18 12:23:10;;;;;;;12.73;7.00;;;;;;;;;;5036209;28;20029;-57
2022/11/18 12:26:03;;;;;;;15.03;7.67;;;;;;;;;;5038843;28;20572;-57
2022/11/18 12:28:35;;;;;;;14.02;8.32;;;;;;;;;;5047559;28;20387;-57
2022/11/18 12:31:22;;;;;;;13.07;7.47;;;;;;;;;;5053291;28;20498;-56
2022/11/18 12:34:03;;;;;;;13.68;6.90;;;;;;;;;;5045793;28;20049;-55
2022/11/18 12:36:41;;;;;;;15.15;8.63;;;8.10;99.90;;;;;;5036885;28;20499;-57
2022/11/18 12:39:26;;;;;;;12.55;7.18;;;;;;;;;;5038117;28;20041;-57
2022/11/18 12:44:40;;;;;;;13.57;7.57;;;8.00;99.90;;;;;;5050122;28;20037;-57
2022/11/18 12:47:07;;;;;;;15.52;9.00;;;7.30;99.90;;;;;;5031691;28;20072;-57
2022/11/18 12:49:36;;;;;;;13.98;8.98;;;7.60;99.90;;;;;;5037394;28;20042;-56
2022/11/18 12:52:03;;;;;;;15.02;8.80;;;;;;;;;;5049783;28;20036;-57
2022/11/18 12:54:29;;;;;;;13.88;8.48;;;;;;;;;;5052330;28;20025;-53
2022/11/18 12:56:57;;;;;;;17.15;9.68;;;;;;;;;;5035605;28;20064;-55
2022/11/18 12:59:27;;;;;;;16.40;10.18;;;;;;;;;;5034167;28;20038;-56
2022/11/18 13:02:16;;;;;;;17.48;10.20;;;;;;;;;;5046694;28;20482;-55
2022/11/18 13:04:42;;;;;;;19.20;11.15;;;;;;;;;;5051858;28;20128;-57
2022/11/18 13:12:32;;;;;;;16.25;9.00;;;;;;;;;;4385213;26;20052;-50
2022/11/18 13:17:51;;;;;;;19.50;10.38;;;7.20;99.90;;;;;;5050492;28;20049;-51
2022/11/18 13:20:32;;;;;;;20.52;11.65;;;7.80;99.90;;;;;;5054329;28;20080;-50
2022/11/18 13:26:06;;;;;;;17.13;9.00;;;7.20;99.90;;;;;;5054544;28;20041;-53
2022/11/18 13:28:38;;;;;;;18.35;10.63;;;;;;;;;;5054000;28;20033;-49
2022/11/18 13:31:22;;;;;;;16.70;9.18;;;;;;;;;;5021259;28;20110;-48
2022/11/18 13:33:49;;;;;;;16.48;9.55;;;;;;;;;;5051063;28;20123;-53
2022/11/18 13:36:20;;;;;;;15.98;9.43;;;;;;;;;;5054954;28;20124;-53
2022/11/18 13:38:56;;;;;;;15.55;8.55;;;;;;;;;;5051632;28;20040;-53
2022/11/18 13:41:23;;;;;;;15.32;9.13;;;;;;;;;;5042414;28;20406;-51
2022/11/18 13:43:50;;;;;;;19.73;10.18;;;;;;;;;;5052980;28;20114;-49
2022/11/18 13:46:19;;;;;;;19.15;10.05;;;;;;;;;;5033942;28;20053;-53
2022/11/18 13:48:57;;;;;;;15.85;9.18;;;;;;;;;;5063704;28;19978;-53
2022/11/18 13:51:23;;;;;;;17.35;9.50;;;7.10;99.90;;;;;;5059603;28;20037;-51
2022/11/18 13:53:50;;;;;;;17.75;9.77;;;7.20;99.90;;;;;;5051960;28;20029;-50
2022/11/18 13:56:16;;;;;;;16.95;8.95;;;;;;;;;;5051535;28;20037;-50
2022/11/18 13:58:52;;;;;;;15.95;9.18;;;;;;;;;;5060505;28;20060;-51
2022/11/18 14:01:32;;;;;;;15.80;8.90;;;7.00;99.90;;;;;;5053131;28;20044;-52
2022/11/18 14:04:02;;;;;;;16.35;10.02;;;;;;;;;;5032389;28;20033;-52
2022/11/18 14:06:44;;;;;;;17.48;9.10;;;7.30;99.90;;;;;;5052170;28;20037;-49
2022/11/18 14:09:10;;;;;;;18.60;10.02;;;;;;;;;;5054918;28;20040;-51
2022/11/18 14:11:41;;;;;;;17.23;9.35;;;;;;;;;;5053055;28;20028;-49
2022/11/18 14:14:09;;;;;;;20.00;10.23;;;;;;;;;;5051573;28;20068;-52
2022/11/18 14:16:37;;;;;;;18.83;10.20;;;6.30;99.90;;;;;;5062418;28;20028;-49
2022/11/18 14:19:08;;;;;;;16.50;9.23;;;;;;;;;;5052838;28;20068;-50
2022/11/18 14:21:37;;;;;;;20.02;10.32;;;;;;;;;;5044896;28;20167;-52
2022/11/18 14:24:03;;;;;;;13.82;8.95;;;;;;;;;;5051056;28;20032;-49
2022/11/18 14:26:31;;;;;;;16.33;9.68;;;;;;;;;;5051018;28;20037;-53
2022/11/18 14:28:58;;;;;;;16.42;9.10;;;;;;;;;;5051598;28;20045;-51
2022/11/18 14:31:27;;;;;;;15.18;8.85;;;;;;;;;;5040476;28;20047;-53
2022/11/18 14:34:17;;;;;;;18.55;9.52;;;;;;;;;;5051743;28;20417;-52
2022/11/18 14:36:46;;;;;;;16.65;9.52;;;;;;;;;;5039387;28;20136;-52
2022/11/18 14:39:23;;;;;;;16.38;8.65;;;6.70;99.90;;;;;;5050676;28;20535;-51